sensor_id;sensor_type;location;lat;lon;timestamp;P1;durP1;ratioP1;P2;durP2;ratioP2
68229;SDS011;55048;52.220;5.160;2023-08-06T00:02:17;12.90;;;7.22;;
68229;SDS011;55048;52.220;5.160;2023-08-06T00:04:42;10.93;;;7.35;;
68229;SDS011;55048;52.220;5.160;2023-08-06T00:07:08;37.58;;;8.40;;
68229;SDS011;55048;52.220;5.160;2023-08-06T00:09:33;7.75;;;6.88;;
68229;SDS011;55048;52.220;5.160;2023-08-06T00:11:59;8.95;;;6.80;;
68229;SDS011;55048;52.220;5.160;2023-08-06T00:14:24;8.90;;;7.88;;
68229;SDS011;55048;52.220;5.160;2023-08-06T00:16:49;10.90;;;7.28;;
68229;SDS011;55048;52.220;5.160;2023-08-06T00:19:15;9.68;;;7.40;;
68229;SDS011;55048;52.220;5.160;2023-08-06T00:21:40;9.50;;;7.95;;
68229;SDS011;55048;52.220;5.160;2023-08-06T00:24:06;11.32;;;9.05;;
68229;SDS011;55048;52.220;5.160;2023-08-06T00:26:31;10.70;;;8.38;;
68229;SDS011;55048;52.220;5.160;2023-08-06T00:28:57;10.02;;;8.00;;
68229;SDS011;55048;52.220;5.160;2023-08-06T00:31:23;14.40;;;8.85;;
68229;SDS011;55048;52.220;5.160;2023-08-06T00:33:48;12.50;;;9.38;;
68229;SDS011;55048;52.220;5.160;2023-08-06T00:36:14;12.05;;;8.98;;
68229;SDS011;55048;52.220;5.160;2023-08-06T00:38:39;14.73;;;8.95;;
68229;SDS011;55048;52.220;5.160;2023-08-06T00:41:05;13.20;;;9.38;;
68229;SDS011;55048;52.220;5.160;2023-08-06T00:43:30;12.57;;;9.02;;
68229;SDS011;55048;52.220;5.160;2023-08-06T00:45:55;14.20;;;9.25;;
68229;SDS011;55048;52.220;5.160;2023-08-06T00:48:21;13.10;;;9.23;;
68229;SDS011;55048;52.220;5.160;2023-08-06T00:50:46;11.07;;;9.63;;
68229;SDS011;55048;52.220;5.160;2023-08-06T00:53:12;13.98;;;8.50;;
68229;SDS011;55048;52.220;5.160;2023-08-06T00:55:40;12.38;;;9.52;;
68229;SDS011;55048;52.220;5.160;2023-08-06T00:58:09;13.65;;;9.05;;
68229;SDS011;55048;52.220;5.160;2023-08-06T01:00:34;11.60;;;8.93;;
68229;SDS011;55048;52.220;5.160;2023-08-06T01:03:00;13.73;;;9.05;;
68229;SDS011;55048;52.220;5.160;2023-08-06T01:05:27;12.80;;;9.50;;
68229;SDS011;55048;52.220;5.160;2023-08-06T01:15:54;12.52;;;8.52;;
68229;SDS011;55048;52.220;5.160;2023-08-06T01:20:49;16.90;;;8.77;;
68229;SDS011;55048;52.220;5.160;2023-08-06T01:23:15;8.73;;;7.72;;
68229;SDS011;55048;52.220;5.160;2023-08-06T01:31:38;15.88;;;8.77;;
68229;SDS011;55048;52.220;5.160;2023-08-06T01:34:07;13.02;;;8.10;;
68229;SDS011;55048;52.220;5.160;2023-08-06T01:36:38;11.63;;;8.35;;
68229;SDS011;55048;52.220;5.160;2023-08-06T01:39:04;13.00;;;8.15;;
68229;SDS011;55048;52.220;5.160;2023-08-06T01:41:30;14.57;;;8.13;;
68229;SDS011;55048;52.220;5.160;2023-08-06T01:43:56;9.77;;;7.47;;
68229;SDS011;55048;52.220;5.160;2023-08-06T01:46:21;13.18;;;7.45;;
68229;SDS011;55048;52.220;5.160;2023-08-06T01:48:47;10.15;;;7.32;;
68229;SDS011;55048;52.220;5.160;2023-08-06T01:51:12;9.60;;;7.10;;
68229;SDS011;55048;52.220;5.160;2023-08-06T01:53:38;14.23;;;7.50;;
68229;SDS011;55048;52.220;5.160;2023-08-06T01:56:03;14.30;;;7.63;;
68229;SDS011;55048;52.220;5.160;2023-08-06T01:58:29;12.98;;;8.23;;
68229;SDS011;55048;52.220;5.160;2023-08-06T02:00:54;12.38;;;7.90;;
68229;SDS011;55048;52.220;5.160;2023-08-06T02:03:19;12.98;;;8.25;;
68229;SDS011;55048;52.220;5.160;2023-08-06T02:05:47;12.73;;;9.05;;
68229;SDS011;55048;52.220;5.160;2023-08-06T02:08:13;13.80;;;8.98;;
68229;SDS011;55048;52.220;5.160;2023-08-06T02:10:38;13.98;;;9.32;;
68229;SDS011;55048;52.220;5.160;2023-08-06T02:13:06;15.65;;;9.13;;
68229;SDS011;55048;52.220;5.160;2023-08-06T02:15:31;16.95;;;10.13;;
68229;SDS011;55048;52.220;5.160;2023-08-06T02:17:57;15.02;;;9.10;;
68229;SDS011;55048;52.220;5.160;2023-08-06T02:20:23;15.18;;;9.02;;
68229;SDS011;55048;52.220;5.160;2023-08-06T02:22:48;14.45;;;9.52;;
68229;SDS011;55048;52.220;5.160;2023-08-06T02:25:14;17.08;;;9.80;;
68229;SDS011;55048;52.220;5.160;2023-08-06T02:27:41;17.17;;;10.05;;
68229;SDS011;55048;52.220;5.160;2023-08-06T02:30:06;16.27;;;10.82;;
68229;SDS011;55048;52.220;5.160;2023-08-06T02:32:33;16.38;;;10.63;;
68229;SDS011;55048;52.220;5.160;2023-08-06T02:35:01;19.92;;;10.52;;
68229;SDS011;55048;52.220;5.160;2023-08-06T02:37:27;17.55;;;11.88;;
68229;SDS011;55048;52.220;5.160;2023-08-06T02:39:52;17.17;;;10.63;;
68229;SDS011;55048;52.220;5.160;2023-08-06T02:42:18;19.90;;;11.93;;
68229;SDS011;55048;52.220;5.160;2023-08-06T02:44:43;15.48;;;11.13;;
68229;SDS011;55048;52.220;5.160;2023-08-06T02:47:09;18.83;;;11.40;;
68229;SDS011;55048;52.220;5.160;2023-08-06T02:49:34;23.67;;;12.75;;
68229;SDS011;55048;52.220;5.160;2023-08-06T02:52:00;22.35;;;12.50;;
68229;SDS011;55048;52.220;5.160;2023-08-06T02:54:25;16.13;;;11.93;;
68229;SDS011;55048;52.220;5.160;2023-08-06T02:56:51;19.85;;;11.65;;
68229;SDS011;55048;52.220;5.160;2023-08-06T02:59:22;21.48;;;13.65;;
68229;SDS011;55048;52.220;5.160;2023-08-06T03:02:00;24.33;;;13.35;;
68229;SDS011;55048;52.220;5.160;2023-08-06T03:04:35;18.13;;;12.93;;
68229;SDS011;55048;52.220;5.160;2023-08-06T03:07:00;16.00;;;12.45;;
68229;SDS011;55048;52.220;5.160;2023-08-06T03:09:34;17.50;;;13.05;;
68229;SDS011;55048;52.220;5.160;2023-08-06T03:11:59;21.75;;;12.88;;
68229;SDS011;55048;52.220;5.160;2023-08-06T03:14:25;20.70;;;14.10;;
68229;SDS011;55048;52.220;5.160;2023-08-06T03:16:51;19.42;;;13.68;;
68229;SDS011;55048;52.220;5.160;2023-08-06T03:19:18;20.25;;;13.30;;
68229;SDS011;55048;52.220;5.160;2023-08-06T03:21:43;20.98;;;12.93;;
68229;SDS011;55048;52.220;5.160;2023-08-06T03:24:09;19.95;;;12.55;;
68229;SDS011;55048;52.220;5.160;2023-08-06T03:26:37;24.38;;;13.23;;
68229;SDS011;55048;52.220;5.160;2023-08-06T03:29:03;17.15;;;13.35;;
68229;SDS011;55048;52.220;5.160;2023-08-06T03:31:31;18.23;;;12.98;;
68229;SDS011;55048;52.220;5.160;2023-08-06T03:33:57;18.88;;;12.68;;
68229;SDS011;55048;52.220;5.160;2023-08-06T03:36:25;20.13;;;12.60;;
68229;SDS011;55048;52.220;5.160;2023-08-06T03:38:51;21.25;;;13.20;;
68229;SDS011;55048;52.220;5.160;2023-08-06T03:41:17;19.02;;;11.43;;
68229;SDS011;55048;52.220;5.160;2023-08-06T03:43:43;17.15;;;11.27;;
68229;SDS011;55048;52.220;5.160;2023-08-06T03:46:15;18.35;;;12.70;;
68229;SDS011;55048;52.220;5.160;2023-08-06T03:48:40;20.02;;;11.65;;
68229;SDS011;55048;52.220;5.160;2023-08-06T03:51:06;16.58;;;11.82;;
68229;SDS011;55048;52.220;5.160;2023-08-06T03:53:31;17.13;;;12.57;;
68229;SDS011;55048;52.220;5.160;2023-08-06T03:55:57;17.25;;;11.70;;
68229;SDS011;55048;52.220;5.160;2023-08-06T03:58:25;14.95;;;11.05;;
68229;SDS011;55048;52.220;5.160;2023-08-06T04:00:58;14.00;;;10.30;;
68229;SDS011;55048;52.220;5.160;2023-08-06T04:03:26;16.13;;;11.23;;
68229;SDS011;55048;52.220;5.160;2023-08-06T04:05:52;12.90;;;10.48;;
68229;SDS011;55048;52.220;5.160;2023-08-06T04:08:19;17.95;;;10.90;;
68229;SDS011;55048;52.220;5.160;2023-08-06T04:10:44;12.25;;;10.23;;
68229;SDS011;55048;52.220;5.160;2023-08-06T04:13:09;13.90;;;10.18;;
68229;SDS011;55048;52.220;5.160;2023-08-06T04:15:35;14.20;;;10.13;;
68229;SDS011;55048;52.220;5.160;2023-08-06T04:18:00;12.88;;;9.80;;
68229;SDS011;55048;52.220;5.160;2023-08-06T04:20:26;17.52;;;10.18;;
68229;SDS011;55048;52.220;5.160;2023-08-06T04:22:54;13.95;;;9.88;;
68229;SDS011;55048;52.220;5.160;2023-08-06T04:25:20;13.23;;;9.43;;
68229;SDS011;55048;52.220;5.160;2023-08-06T04:27:46;10.73;;;9.27;;
68229;SDS011;55048;52.220;5.160;2023-08-06T04:30:12;14.80;;;9.77;;
68229;SDS011;55048;52.220;5.160;2023-08-06T04:32:38;12.80;;;9.65;;
68229;SDS011;55048;52.220;5.160;2023-08-06T04:35:05;10.57;;;9.25;;
68229;SDS011;55048;52.220;5.160;2023-08-06T04:37:31;13.55;;;9.38;;
68229;SDS011;55048;52.220;5.160;2023-08-06T04:39:57;11.88;;;9.65;;
68229;SDS011;55048;52.220;5.160;2023-08-06T04:42:22;14.45;;;8.85;;
68229;SDS011;55048;52.220;5.160;2023-08-06T04:44:48;11.02;;;8.98;;
68229;SDS011;55048;52.220;5.160;2023-08-06T04:47:14;11.60;;;9.43;;
68229;SDS011;55048;52.220;5.160;2023-08-06T04:49:39;12.32;;;8.90;;
68229;SDS011;55048;52.220;5.160;2023-08-06T04:52:04;11.07;;;8.63;;
68229;SDS011;55048;52.220;5.160;2023-08-06T04:54:30;9.75;;;8.73;;
68229;SDS011;55048;52.220;5.160;2023-08-06T04:56:56;12.38;;;8.63;;
68229;SDS011;55048;52.220;5.160;2023-08-06T04:59:22;10.02;;;8.45;;
68229;SDS011;55048;52.220;5.160;2023-08-06T05:01:47;8.40;;;7.25;;
68229;SDS011;55048;52.220;5.160;2023-08-06T05:04:12;9.63;;;7.53;;
68229;SDS011;55048;52.220;5.160;2023-08-06T05:06:38;9.52;;;7.20;;
68229;SDS011;55048;52.220;5.160;2023-08-06T05:09:03;10.10;;;7.15;;
68229;SDS011;55048;52.220;5.160;2023-08-06T05:11:30;8.07;;;6.72;;
68229;SDS011;55048;52.220;5.160;2023-08-06T05:13:55;7.70;;;6.57;;
68229;SDS011;55048;52.220;5.160;2023-08-06T05:16:20;7.05;;;6.35;;
68229;SDS011;55048;52.220;5.160;2023-08-06T05:18:46;8.50;;;6.05;;
68229;SDS011;55048;52.220;5.160;2023-08-06T05:21:11;9.80;;;6.88;;
68229;SDS011;55048;52.220;5.160;2023-08-06T05:23:37;9.75;;;6.57;;
68229;SDS011;55048;52.220;5.160;2023-08-06T05:26:02;9.70;;;6.95;;
68229;SDS011;55048;52.220;5.160;2023-08-06T05:28:28;9.52;;;7.00;;
68229;SDS011;55048;52.220;5.160;2023-08-06T05:30:53;9.68;;;7.47;;
68229;SDS011;55048;52.220;5.160;2023-08-06T05:33:18;8.32;;;6.63;;
68229;SDS011;55048;52.220;5.160;2023-08-06T05:35:44;8.60;;;5.93;;
68229;SDS011;55048;52.220;5.160;2023-08-06T05:38:10;7.25;;;5.70;;
68229;SDS011;55048;52.220;5.160;2023-08-06T05:40:35;6.07;;;4.90;;
68229;SDS011;55048;52.220;5.160;2023-08-06T05:43:01;4.45;;;3.67;;
68229;SDS011;55048;52.220;5.160;2023-08-06T05:45:27;4.88;;;3.65;;
68229;SDS011;55048;52.220;5.160;2023-08-06T05:47:52;4.45;;;2.65;;
68229;SDS011;55048;52.220;5.160;2023-08-06T05:50:19;2.40;;;2.20;;
68229;SDS011;55048;52.220;5.160;2023-08-06T05:52:45;3.33;;;2.55;;
68229;SDS011;55048;52.220;5.160;2023-08-06T05:55:10;3.03;;;2.30;;
68229;SDS011;55048;52.220;5.160;2023-08-06T05:57:35;3.50;;;2.92;;
68229;SDS011;55048;52.220;5.160;2023-08-06T06:00:01;2.70;;;1.98;;
68229;SDS011;55048;52.220;5.160;2023-08-06T06:02:37;2.88;;;1.85;;
68229;SDS011;55048;52.220;5.160;2023-08-06T06:05:03;3.30;;;2.03;;
68229;SDS011;55048;52.220;5.160;2023-08-06T06:07:28;1.60;;;1.30;;
68229;SDS011;55048;52.220;5.160;2023-08-06T06:09:54;1.38;;;1.27;;
68229;SDS011;55048;52.220;5.160;2023-08-06T06:12:19;1.00;;;0.90;;
68229;SDS011;55048;52.220;5.160;2023-08-06T06:14:47;3.05;;;1.00;;
68229;SDS011;55048;52.220;5.160;2023-08-06T06:17:12;1.17;;;0.85;;
68229;SDS011;55048;52.220;5.160;2023-08-06T06:19:38;1.38;;;0.90;;
68229;SDS011;55048;52.220;5.160;2023-08-06T06:22:03;3.38;;;1.02;;
68229;SDS011;55048;52.220;5.160;2023-08-06T06:24:29;5.38;;;1.10;;
68229;SDS011;55048;52.220;5.160;2023-08-06T06:26:55;2.75;;;1.08;;
68229;SDS011;55048;52.220;5.160;2023-08-06T06:29:20;1.63;;;1.17;;
68229;SDS011;55048;52.220;5.160;2023-08-06T06:31:46;1.75;;;1.10;;
68229;SDS011;55048;52.220;5.160;2023-08-06T06:34:11;1.30;;;1.20;;
68229;SDS011;55048;52.220;5.160;2023-08-06T06:36:37;2.13;;;1.27;;
68229;SDS011;55048;52.220;5.160;2023-08-06T06:39:02;1.13;;;1.02;;
68229;SDS011;55048;52.220;5.160;2023-08-06T06:41:28;1.20;;;0.70;;
68229;SDS011;55048;52.220;5.160;2023-08-06T06:44:02;2.20;;;0.90;;
68229;SDS011;55048;52.220;5.160;2023-08-06T06:46:28;2.60;;;0.90;;
68229;SDS011;55048;52.220;5.160;2023-08-06T06:48:53;1.67;;;1.00;;
68229;SDS011;55048;52.220;5.160;2023-08-06T06:51:19;3.83;;;1.33;;
68229;SDS011;55048;52.220;5.160;2023-08-06T06:53:44;2.97;;;1.20;;
68229;SDS011;55048;52.220;5.160;2023-08-06T06:56:10;3.53;;;1.17;;
68229;SDS011;55048;52.220;5.160;2023-08-06T06:58:35;1.33;;;1.02;;
68229;SDS011;55048;52.220;5.160;2023-08-06T07:01:01;2.88;;;1.10;;
68229;SDS011;55048;52.220;5.160;2023-08-06T07:03:26;3.53;;;1.35;;
68229;SDS011;55048;52.220;5.160;2023-08-06T07:05:51;2.53;;;1.20;;
68229;SDS011;55048;52.220;5.160;2023-08-06T07:08:21;2.03;;;1.33;;
68229;SDS011;55048;52.220;5.160;2023-08-06T07:10:47;1.23;;;1.13;;
68229;SDS011;55048;52.220;5.160;2023-08-06T07:13:12;3.20;;;1.30;;
68229;SDS011;55048;52.220;5.160;2023-08-06T07:15:38;2.22;;;1.58;;
68229;SDS011;55048;52.220;5.160;2023-08-06T07:18:03;2.28;;;2.00;;
68229;SDS011;55048;52.220;5.160;2023-08-06T07:20:28;2.90;;;1.85;;
68229;SDS011;55048;52.220;5.160;2023-08-06T07:22:57;5.13;;;2.53;;
68229;SDS011;55048;52.220;5.160;2023-08-06T07:25:23;2.40;;;1.58;;
68229;SDS011;55048;52.220;5.160;2023-08-06T07:27:49;2.28;;;2.00;;
68229;SDS011;55048;52.220;5.160;2023-08-06T07:30:14;4.82;;;2.03;;
68229;SDS011;55048;52.220;5.160;2023-08-06T07:32:40;9.50;;;2.20;;
68229;SDS011;55048;52.220;5.160;2023-08-06T07:35:05;2.85;;;1.55;;
68229;SDS011;55048;52.220;5.160;2023-08-06T07:37:33;3.50;;;1.63;;
68229;SDS011;55048;52.220;5.160;2023-08-06T07:39:58;2.65;;;0.98;;
68229;SDS011;55048;52.220;5.160;2023-08-06T07:42:23;7.75;;;1.45;;
68229;SDS011;55048;52.220;5.160;2023-08-06T07:44:51;1.85;;;1.02;;
68229;SDS011;55048;52.220;5.160;2023-08-06T07:47:18;3.13;;;1.17;;
68229;SDS011;55048;52.220;5.160;2023-08-06T07:49:44;2.83;;;1.02;;
68229;SDS011;55048;52.220;5.160;2023-08-06T07:52:09;1.90;;;1.20;;
68229;SDS011;55048;52.220;5.160;2023-08-06T07:54:34;1.88;;;0.80;;
68229;SDS011;55048;52.220;5.160;2023-08-06T07:57:00;3.58;;;1.20;;
68229;SDS011;55048;52.220;5.160;2023-08-06T07:59:25;2.83;;;1.08;;
68229;SDS011;55048;52.220;5.160;2023-08-06T08:01:51;3.90;;;1.20;;
68229;SDS011;55048;52.220;5.160;2023-08-06T08:04:16;1.95;;;1.20;;
68229;SDS011;55048;52.220;5.160;2023-08-06T08:06:41;2.90;;;1.27;;
68229;SDS011;55048;52.220;5.160;2023-08-06T08:09:07;2.53;;;1.27;;
68229;SDS011;55048;52.220;5.160;2023-08-06T08:11:32;1.88;;;1.60;;
68229;SDS011;55048;52.220;5.160;2023-08-06T08:13:58;3.53;;;1.30;;
68229;SDS011;55048;52.220;5.160;2023-08-06T08:16:23;2.90;;;1.40;;
68229;SDS011;55048;52.220;5.160;2023-08-06T08:18:49;2.17;;;1.10;;
68229;SDS011;55048;52.220;5.160;2023-08-06T08:21:14;1.60;;;1.40;;
68229;SDS011;55048;52.220;5.160;2023-08-06T08:23:39;1.83;;;1.30;;
68229;SDS011;55048;52.220;5.160;2023-08-06T08:26:06;2.95;;;1.70;;
68229;SDS011;55048;52.220;5.160;2023-08-06T08:28:32;3.00;;;1.70;;
68229;SDS011;55048;52.220;5.160;2023-08-06T08:30:57;2.40;;;1.52;;
68229;SDS011;55048;52.220;5.160;2023-08-06T08:33:23;5.90;;;1.73;;
68229;SDS011;55048;52.220;5.160;2023-08-06T08:35:48;2.45;;;1.50;;
68229;SDS011;55048;52.220;5.160;2023-08-06T08:38:13;4.60;;;1.92;;
68229;SDS011;55048;52.220;5.160;2023-08-06T08:40:41;4.75;;;2.10;;
68229;SDS011;55048;52.220;5.160;2023-08-06T08:43:12;4.72;;;2.33;;
68229;SDS011;55048;52.220;5.160;2023-08-06T08:45:39;4.03;;;1.90;;
68229;SDS011;55048;52.220;5.160;2023-08-06T08:48:05;6.18;;;2.10;;
68229;SDS011;55048;52.220;5.160;2023-08-06T08:50:31;3.72;;;2.47;;
68229;SDS011;55048;52.220;5.160;2023-08-06T08:52:57;5.35;;;3.22;;
68229;SDS011;55048;52.220;5.160;2023-08-06T08:55:23;4.22;;;2.50;;
68229;SDS011;55048;52.220;5.160;2023-08-06T08:57:48;4.47;;;1.73;;
68229;SDS011;55048;52.220;5.160;2023-08-06T09:00:14;3.92;;;2.10;;
68229;SDS011;55048;52.220;5.160;2023-08-06T09:02:39;5.70;;;2.85;;
68229;SDS011;55048;52.220;5.160;2023-08-06T09:05:06;5.57;;;2.08;;
68229;SDS011;55048;52.220;5.160;2023-08-06T09:07:35;2.95;;;2.15;;
68229;SDS011;55048;52.220;5.160;2023-08-06T09:10:06;3.03;;;2.25;;
68229;SDS011;55048;52.220;5.160;2023-08-06T09:12:35;4.07;;;2.37;;
68229;SDS011;55048;52.220;5.160;2023-08-06T09:15:00;3.15;;;2.17;;
68229;SDS011;55048;52.220;5.160;2023-08-06T09:17:28;2.75;;;2.10;;
68229;SDS011;55048;52.220;5.160;2023-08-06T09:19:54;7.57;;;2.10;;
68229;SDS011;55048;52.220;5.160;2023-08-06T09:22:19;2.35;;;1.48;;
68229;SDS011;55048;52.220;5.160;2023-08-06T09:24:45;2.95;;;1.50;;
68229;SDS011;55048;52.220;5.160;2023-08-06T09:27:11;3.05;;;1.70;;
68229;SDS011;55048;52.220;5.160;2023-08-06T09:29:45;3.47;;;2.05;;
68229;SDS011;55048;52.220;5.160;2023-08-06T09:32:11;4.07;;;1.77;;
68229;SDS011;55048;52.220;5.160;2023-08-06T09:34:43;3.70;;;2.40;;
68229;SDS011;55048;52.220;5.160;2023-08-06T09:37:09;4.65;;;2.17;;
68229;SDS011;55048;52.220;5.160;2023-08-06T09:39:38;4.35;;;2.33;;
68229;SDS011;55048;52.220;5.160;2023-08-06T09:42:06;7.38;;;2.53;;
68229;SDS011;55048;52.220;5.160;2023-08-06T09:44:32;5.13;;;2.80;;
68229;SDS011;55048;52.220;5.160;2023-08-06T09:46:59;4.65;;;2.60;;
68229;SDS011;55048;52.220;5.160;2023-08-06T09:49:40;5.65;;;2.78;;
68229;SDS011;55048;52.220;5.160;2023-08-06T09:52:11;4.43;;;2.10;;
68229;SDS011;55048;52.220;5.160;2023-08-06T09:54:37;5.35;;;2.53;;
68229;SDS011;55048;52.220;5.160;2023-08-06T09:57:03;6.05;;;2.58;;
68229;SDS011;55048;52.220;5.160;2023-08-06T09:59:29;7.90;;;2.60;;
68229;SDS011;55048;52.220;5.160;2023-08-06T10:01:55;7.97;;;2.92;;
68229;SDS011;55048;52.220;5.160;2023-08-06T10:04:21;4.10;;;2.00;;
68229;SDS011;55048;52.220;5.160;2023-08-06T10:06:47;4.63;;;2.28;;
68229;SDS011;55048;52.220;5.160;2023-08-06T10:09:13;5.95;;;2.42;;
68229;SDS011;55048;52.220;5.160;2023-08-06T10:11:39;7.57;;;2.22;;
68229;SDS011;55048;52.220;5.160;2023-08-06T10:14:07;5.10;;;1.70;;
68229;SDS011;55048;52.220;5.160;2023-08-06T10:16:35;5.97;;;2.10;;
68229;SDS011;55048;52.220;5.160;2023-08-06T10:19:02;5.15;;;1.70;;
68229;SDS011;55048;52.220;5.160;2023-08-06T10:21:30;6.18;;;1.45;;
68229;SDS011;55048;52.220;5.160;2023-08-06T10:23:56;7.60;;;1.90;;
68229;SDS011;55048;52.220;5.160;2023-08-06T10:26:28;3.92;;;1.80;;
68229;SDS011;55048;52.220;5.160;2023-08-06T10:28:54;4.97;;;1.40;;
68229;SDS011;55048;52.220;5.160;2023-08-06T10:31:20;3.13;;;1.20;;
68229;SDS011;55048;52.220;5.160;2023-08-06T10:34:05;4.35;;;1.30;;
68229;SDS011;55048;52.220;5.160;2023-08-06T10:36:31;5.63;;;1.50;;
68229;SDS011;55048;52.220;5.160;2023-08-06T10:38:58;4.05;;;1.38;;
68229;SDS011;55048;52.220;5.160;2023-08-06T10:41:29;4.38;;;1.27;;
68229;SDS011;55048;52.220;5.160;2023-08-06T10:44:05;3.38;;;1.42;;
68229;SDS011;55048;52.220;5.160;2023-08-06T10:46:32;1.98;;;1.13;;
68229;SDS011;55048;52.220;5.160;2023-08-06T10:48:57;4.05;;;0.93;;
68229;SDS011;55048;52.220;5.160;2023-08-06T10:51:23;7.05;;;1.30;;
68229;SDS011;55048;52.220;5.160;2023-08-06T10:53:49;4.82;;;1.20;;
68229;SDS011;55048;52.220;5.160;2023-08-06T10:56:22;6.47;;;1.35;;
68229;SDS011;55048;52.220;5.160;2023-08-06T10:58:52;3.20;;;1.25;;
68229;SDS011;55048;52.220;5.160;2023-08-06T11:01:19;3.08;;;1.17;;
68229;SDS011;55048;52.220;5.160;2023-08-06T11:03:46;3.05;;;1.40;;
68229;SDS011;55048;52.220;5.160;2023-08-06T11:06:20;2.47;;;1.20;;
68229;SDS011;55048;52.220;5.160;2023-08-06T11:08:47;4.70;;;1.30;;
68229;SDS011;55048;52.220;5.160;2023-08-06T11:11:15;2.78;;;1.20;;
68229;SDS011;55048;52.220;5.160;2023-08-06T11:13:45;2.17;;;1.10;;
68229;SDS011;55048;52.220;5.160;2023-08-06T11:16:15;2.75;;;1.10;;
68229;SDS011;55048;52.220;5.160;2023-08-06T11:18:43;5.43;;;0.90;;
68229;SDS011;55048;52.220;5.160;2023-08-06T11:21:08;3.63;;;0.88;;
68229;SDS011;55048;52.220;5.160;2023-08-06T11:23:34;2.63;;;0.80;;
68229;SDS011;55048;52.220;5.160;2023-08-06T11:26:00;3.53;;;0.60;;
68229;SDS011;55048;52.220;5.160;2023-08-06T11:28:26;3.55;;;0.80;;
68229;SDS011;55048;52.220;5.160;2023-08-06T11:30:51;3.17;;;0.80;;
68229;SDS011;55048;52.220;5.160;2023-08-06T11:33:21;2.85;;;0.80;;
68229;SDS011;55048;52.220;5.160;2023-08-06T11:35:48;3.50;;;0.90;;
68229;SDS011;55048;52.220;5.160;2023-08-06T11:38:13;1.67;;;0.80;;
68229;SDS011;55048;52.220;5.160;2023-08-06T11:40:39;4.38;;;0.80;;
68229;SDS011;55048;52.220;5.160;2023-08-06T11:43:07;3.42;;;0.75;;
68229;SDS011;55048;52.220;5.160;2023-08-06T11:45:37;4.50;;;1.00;;
68229;SDS011;55048;52.220;5.160;2023-08-06T11:48:03;2.67;;;0.80;;
68229;SDS011;55048;52.220;5.160;2023-08-06T11:50:29;2.80;;;0.70;;
68229;SDS011;55048;52.220;5.160;2023-08-06T11:53:00;3.33;;;0.68;;
68229;SDS011;55048;52.220;5.160;2023-08-06T11:55:26;2.35;;;0.60;;
68229;SDS011;55048;52.220;5.160;2023-08-06T12:00:23;2.42;;;0.65;;
68229;SDS011;55048;52.220;5.160;2023-08-06T12:02:49;1.38;;;0.60;;
68229;SDS011;55048;52.220;5.160;2023-08-06T12:05:20;1.05;;;0.50;;
68229;SDS011;55048;52.220;5.160;2023-08-06T12:07:57;1.10;;;0.60;;
68229;SDS011;55048;52.220;5.160;2023-08-06T12:10:25;1.92;;;0.70;;
68229;SDS011;55048;52.220;5.160;2023-08-06T12:12:52;1.55;;;0.77;;
68229;SDS011;55048;52.220;5.160;2023-08-06T12:15:18;4.47;;;0.80;;
68229;SDS011;55048;52.220;5.160;2023-08-06T12:17:44;1.95;;;0.70;;
68229;SDS011;55048;52.220;5.160;2023-08-06T12:20:09;2.50;;;0.90;;
68229;SDS011;55048;52.220;5.160;2023-08-06T12:22:35;4.18;;;0.73;;
68229;SDS011;55048;52.220;5.160;2023-08-06T12:25:04;2.25;;;0.70;;
68229;SDS011;55048;52.220;5.160;2023-08-06T12:27:34;2.70;;;0.65;;
68229;SDS011;55048;52.220;5.160;2023-08-06T12:30:00;1.50;;;0.90;;
68229;SDS011;55048;52.220;5.160;2023-08-06T12:32:26;1.70;;;0.73;;
68229;SDS011;55048;52.220;5.160;2023-08-06T12:34:51;2.67;;;0.80;;
68229;SDS011;55048;52.220;5.160;2023-08-06T12:37:16;9.18;;;1.23;;
68229;SDS011;55048;52.220;5.160;2023-08-06T12:39:42;2.50;;;1.00;;
68229;SDS011;55048;52.220;5.160;2023-08-06T12:42:07;2.22;;;0.80;;
68229;SDS011;55048;52.220;5.160;2023-08-06T12:44:33;3.50;;;1.20;;
68229;SDS011;55048;52.220;5.160;2023-08-06T12:46:59;4.03;;;1.00;;
68229;SDS011;55048;52.220;5.160;2023-08-06T12:49:24;2.53;;;1.00;;
68229;SDS011;55048;52.220;5.160;2023-08-06T12:51:51;3.22;;;0.90;;
68229;SDS011;55048;52.220;5.160;2023-08-06T12:54:17;2.65;;;0.90;;
68229;SDS011;55048;52.220;5.160;2023-08-06T12:56:47;3.08;;;0.90;;
68229;SDS011;55048;52.220;5.160;2023-08-06T12:59:14;3.05;;;0.80;;
68229;SDS011;55048;52.220;5.160;2023-08-06T13:01:41;2.17;;;0.85;;
68229;SDS011;55048;52.220;5.160;2023-08-06T13:04:07;4.20;;;1.10;;
68229;SDS011;55048;52.220;5.160;2023-08-06T13:06:32;2.42;;;0.70;;
68229;SDS011;55048;52.220;5.160;2023-08-06T13:09:10;3.22;;;0.70;;
68229;SDS011;55048;52.220;5.160;2023-08-06T13:11:36;5.00;;;0.82;;
68229;SDS011;55048;52.220;5.160;2023-08-06T13:14:10;1.80;;;0.75;;
68229;SDS011;55048;52.220;5.160;2023-08-06T13:16:37;3.42;;;0.73;;
68229;SDS011;55048;52.220;5.160;2023-08-06T13:19:03;3.05;;;0.70;;
68229;SDS011;55048;52.220;5.160;2023-08-06T13:21:33;3.60;;;0.80;;
68229;SDS011;55048;52.220;5.160;2023-08-06T13:24:01;9.90;;;1.00;;
68229;SDS011;55048;52.220;5.160;2023-08-06T13:26:27;2.22;;;0.80;;
68229;SDS011;55048;52.220;5.160;2023-08-06T13:28:54;4.22;;;1.10;;
68229;SDS011;55048;52.220;5.160;2023-08-06T13:31:19;5.45;;;1.10;;
68229;SDS011;55048;52.220;5.160;2023-08-06T13:33:45;2.78;;;1.00;;
68229;SDS011;55048;52.220;5.160;2023-08-06T13:36:10;3.92;;;1.15;;
68229;SDS011;55048;52.220;5.160;2023-08-06T13:38:36;2.83;;;1.00;;
68229;SDS011;55048;52.220;5.160;2023-08-06T13:41:01;5.22;;;1.00;;
68229;SDS011;55048;52.220;5.160;2023-08-06T13:43:27;2.60;;;1.05;;
68229;SDS011;55048;52.220;5.160;2023-08-06T13:45:53;3.88;;;1.00;;
68229;SDS011;55048;52.220;5.160;2023-08-06T13:48:18;2.67;;;1.00;;
68229;SDS011;55048;52.220;5.160;2023-08-06T13:50:43;2.25;;;0.95;;
68229;SDS011;55048;52.220;5.160;2023-08-06T13:53:09;6.40;;;1.00;;
68229;SDS011;55048;52.220;5.160;2023-08-06T13:55:35;1.30;;;0.80;;
68229;SDS011;55048;52.220;5.160;2023-08-06T13:58:00;2.13;;;0.70;;
68229;SDS011;55048;52.220;5.160;2023-08-06T14:00:26;2.65;;;0.90;;
68229;SDS011;55048;52.220;5.160;2023-08-06T14:02:51;2.08;;;0.75;;
68229;SDS011;55048;52.220;5.160;2023-08-06T14:05:17;2.65;;;0.60;;
68229;SDS011;55048;52.220;5.160;2023-08-06T14:07:42;4.18;;;0.73;;
68229;SDS011;55048;52.220;5.160;2023-08-06T14:10:07;1.42;;;0.70;;
68229;SDS011;55048;52.220;5.160;2023-08-06T14:12:34;4.07;;;0.90;;
68229;SDS011;55048;52.220;5.160;2023-08-06T14:15:00;2.10;;;0.90;;
68229;SDS011;55048;52.220;5.160;2023-08-06T14:17:27;2.42;;;0.77;;
68229;SDS011;55048;52.220;5.160;2023-08-06T14:19:52;1.38;;;0.75;;
68229;SDS011;55048;52.220;5.160;2023-08-06T14:22:17;3.50;;;0.70;;
68229;SDS011;55048;52.220;5.160;2023-08-06T14:24:43;3.80;;;0.80;;
68229;SDS011;55048;52.220;5.160;2023-08-06T14:27:08;2.42;;;0.80;;
68229;SDS011;55048;52.220;5.160;2023-08-06T14:29:33;4.88;;;0.80;;
68229;SDS011;55048;52.220;5.160;2023-08-06T14:31:59;3.47;;;0.65;;
68229;SDS011;55048;52.220;5.160;2023-08-06T14:34:24;2.35;;;0.70;;
68229;SDS011;55048;52.220;5.160;2023-08-06T14:36:50;2.28;;;0.70;;
68229;SDS011;55048;52.220;5.160;2023-08-06T14:39:15;2.72;;;0.80;;
68229;SDS011;55048;52.220;5.160;2023-08-06T14:41:40;1.98;;;0.70;;
68229;SDS011;55048;52.220;5.160;2023-08-06T14:44:06;1.52;;;0.50;;
68229;SDS011;55048;52.220;5.160;2023-08-06T14:46:32;6.60;;;0.68;;
68229;SDS011;55048;52.220;5.160;2023-08-06T14:48:58;1.80;;;0.80;;
68229;SDS011;55048;52.220;5.160;2023-08-06T14:51:23;3.03;;;0.50;;
68229;SDS011;55048;52.220;5.160;2023-08-06T14:53:49;5.32;;;0.68;;
68229;SDS011;55048;52.220;5.160;2023-08-06T14:56:14;2.88;;;0.50;;
68229;SDS011;55048;52.220;5.160;2023-08-06T14:58:40;2.90;;;0.50;;